Погода Саткхирана 2 недели

Кхулна, Бангладеш

27 января-09 февраля
  • 27января
    Сегодня
    +17°
    +29°
    Ясно и безоблачно
    ВремяПогодаТемператураВлажностьДавлениеВетер, м/сВероятность осадков
    00:00Ясно и безоблачно+20°C80 %759 мм0.0 м/с2 %
    03:00Ясно и безоблачно+19°C85 %758 мм2.3 м/с2 %
    06:00Ясно и безоблачно+19°C85 %759 мм0.2 м/с2 %
    09:00Ясно и безоблачно+22°C66 %761 мм1.9 м/с2 %
    12:00Ясно и безоблачно+27°C49 %760 мм0.5 м/с2 %
    15:00Ясно и безоблачно+29°C49 %757 мм0.4 м/с2 %
    18:00Ясно и безоблачно+25°C65 %757 мм0.0 м/с2 %
    21:00Ясно и безоблачно+21°C72 %759 мм0.0 м/с2 %
  • 28января
    Суббота
    +14°
    +28°
    Ясно и безоблачно
    ВремяПогодаТемператураВлажностьДавлениеВетер, м/сВероятность осадков
    00:00Ясно и безоблачно+20°C88 %758 мм0.0 м/с2 %
    03:00Ясно и безоблачно+19°C93 %758 мм1.7 м/с2 %
    06:00Ясно и безоблачно+17°C96 %759 мм0.2 м/с2 %
    09:00Ясно и безоблачно+21°C76 %760 мм2.0 м/с2 %
    12:00Ясно и безоблачно+26°C50 %759 мм0.5 м/с2 %
    15:00Ясно и безоблачно+28°C42 %757 мм0.3 м/с2 %
    18:00Ясно и безоблачно+24°C60 %757 мм0.1 м/с2 %
    21:00Ясно и безоблачно+20°C68 %759 мм0.0 м/с2 %
  • 29января
    Воскресенье
    +13°
    +27°
    Ясно и безоблачно
    ВремяПогодаТемператураВлажностьДавлениеВетер, м/сВероятность осадков
    00:00Ясно и безоблачно+18°C79 %759 мм0.0 м/с2 %
    03:00Ясно и безоблачно+17°C84 %758 мм2.4 м/с2 %
    06:00Ясно и безоблачно+16°C81 %759 мм0.2 м/с2 %
    09:00Ясно и безоблачно+18°C67 %761 мм2.2 м/с2 %
    12:00Ясно и безоблачно+25°C35 %760 мм0.1 м/с2 %
    15:00Ясно и безоблачно+27°C27 %758 мм0.2 м/с2 %
    18:00Ясно и безоблачно+22°C43 %758 мм0.0 м/с2 %
    21:00Ясно и безоблачно+18°C61 %760 мм0.0 м/с2 %
  • 30января
    Понедельник
    +15°
    +28°
    Ясно и безоблачно
    ВремяПогодаТемператураВлажностьДавлениеВетер, м/сВероятность осадков
    00:00Ясно и безоблачно+16°C75 %760 мм0.0 м/с2 %
    03:00Ясно и безоблачно+14°C85 %759 мм2.7 м/с2 %
    06:00Ясно и безоблачно+14°C90 %760 мм0.1 м/с2 %
    09:00Ясно и безоблачно+20°C68 %761 мм1.0 м/с2 %
    12:00Ясно и безоблачно+25°C48 %760 мм0.0 м/с2 %
    15:00Ясно и безоблачно+28°C41 %758 мм0.0 м/с2 %
    18:00Ясно и безоблачно+23°C61 %758 мм0.0 м/с2 %
    21:00Ясно и безоблачно+19°C76 %760 мм0.0 м/с2 %
  • 31января
    Вторник
    +17°
    +28°
    Практически безоблачно
    ВремяПогодаТемператураВлажностьДавлениеВетер, м/сВероятность осадков
    00:00Ясно и безоблачно+18°C83 %760 мм0.0 м/с2 %
    03:00Ясно и безоблачно+16°C92 %759 мм1.6 м/с2 %
    06:00Небольшая облачность+15°C97 %759 мм0.0 м/с2 %
    09:00Ясно и безоблачно+19°C77 %760 мм0.9 м/с2 %
    12:00Ясно и безоблачно+26°C40 %759 мм0.0 м/с2 %
    15:00Практически безоблачно+28°C30 %757 мм0.1 м/с2 %
    18:00Практически безоблачно+23°C48 %757 мм0.0 м/с2 %
    21:00Практически безоблачно+20°C60 %758 мм0.0 м/с2 %
Мы используем cookies
Соглашаюсь